^^
Grace C. Lehan Memorial Weather Station Historical Data
Daily Summary for August 17, 2021 Units:  Both    English   Metric
Daily Weekly Monthly Yearly
  High: Low: Average:
Temperature: 74.5 °F /  23.6 °C 66.3 °F /  19.1 °C 69.4 °F /  20.8 °C
Dew Point: 68.9 °F /  20.5 °C 63.1 °F /  17.3 °C 65.7 °F /  18.7 °C
Humidity: 93% 80.8% 88%
Wind Speed: 2.2mph /  3.5km/h - 0.2mph /  0.3km/h
Wind Gust: 7mph /  11.3km/h - -
Wind- - ENE
Pressure: 30.28 in /  1025.3 hPa 30.11 in /  1019.5 hPa -
Precipitation: 0.00 in /  0 mm    
 
 
Tabular Data for August 17, 2021
Time Temperature Dew Point Pressure Wind Wind Speed Wind Gust Humidity Rainfall Rate (Hourly) solar
00:00 68.2 °F /  20.1 °C 64.5 °F /  18.1 °C 30.26in /  1024.6hPa Calm   7mph /  11.3km/h 88% 0.00in /  0mm 0 W/m2
00:09 68.1 °F /  20.1 °C 64.4 °F /  18 °C 30.25in /  1024.3hPa ENE 0.3mph /  0.5km/h 3mph /  4.8km/h 88% 0.00in /  0mm 0 W/m2
00:14 68 °F /  20 °C 64.4 °F /  18 °C 30.25in /  1024.3hPa ENE 0.5mph /  0.8km/h 3mph /  4.8km/h 88% 0.00in /  0mm 0 W/m2
00:19 68 °F /  20 °C 64.3 °F /  17.9 °C 30.25in /  1024.3hPa ENE 0.6mph /  1km/h 4mph /  6.4km/h 88% 0.00in /  0mm 0 W/m2
00:24 67.9 °F /  19.9 °C 64.2 °F /  17.9 °C 30.25in /  1024.3hPa ENE 1mph /  1.6km/h 5mph /  8km/h 88% 0.00in /  0mm 0 W/m2
00:29 67.9 °F /  19.9 °C 64.2 °F /  17.9 °C 30.25in /  1024.3hPa ENE 0.3mph /  0.5km/h 5mph /  8km/h 88% 0.00in /  0mm 0 W/m2
00:34 67.9 °F /  19.9 °C 64.2 °F /  17.9 °C 30.25in /  1024.3hPa ENE 0.5mph /  0.8km/h 5mph /  8km/h 88% 0.00in /  0mm 0 W/m2
00:39 67.9 °F /  19.9 °C 64.2 °F /  17.9 °C 30.25in /  1024.3hPa ENE 0.7mph /  1.1km/h 4mph /  6.4km/h 88% 0.00in /  0mm 0 W/m2
00:44 67.9 °F /  19.9 °C 64.2 °F /  17.9 °C 30.25in /  1024.3hPa ENE 0.1mph /  0.2km/h 4mph /  6.4km/h 88% 0.00in /  0mm 0 W/m2
00:49 67.8 °F /  19.9 °C 64.1 °F /  17.8 °C 30.25in /  1024.3hPa ENE 0.5mph /  0.8km/h 4mph /  6.4km/h 88% 0.00in /  0mm 0 W/m2
00:54 67.8 °F /  19.9 °C 64.1 °F /  17.8 °C 30.25in /  1024.3hPa ENE 0.6mph /  1km/h 4mph /  6.4km/h 88% 0.00in /  0mm 0 W/m2
00:59 67.8 °F /  19.9 °C 64.1 °F /  17.8 °C 30.25in /  1024.3hPa ENE 0.8mph /  1.3km/h 7mph /  11.3km/h 88% 0.00in /  0mm 0 W/m2
01:04 67.7 °F /  19.8 °C 64 °F /  17.8 °C 30.25in /  1024.3hPa ENE 0.1mph /  0.2km/h 7mph /  11.3km/h 88% 0.00in /  0mm 0 W/m2
01:09 67.7 °F /  19.8 °C 64 °F /  17.8 °C 30.25in /  1024.3hPa ENE 0.6mph /  1km/h 4mph /  6.4km/h 88% 0.00in /  0mm 0 W/m2
01:14 67.7 °F /  19.8 °C 64 °F /  17.8 °C 30.25in /  1024.3hPa ENE 0.6mph /  1km/h 4mph /  6.4km/h 88% 0.00in /  0mm 0 W/m2
01:19 67.6 °F /  19.8 °C 63.9 °F /  17.7 °C 30.25in /  1024.3hPa ENE 0.6mph /  1km/h 4mph /  6.4km/h 88% 0.00in /  0mm 0 W/m2
01:24 67.6 °F /  19.8 °C 63.9 °F /  17.7 °C 30.25in /  1024.3hPa ENE 0.2mph /  0.3km/h 4mph /  6.4km/h 88% 0.00in /  0mm 0 W/m2
01:29 67.6 °F /  19.8 °C 63.9 °F /  17.7 °C 30.25in /  1024.3hPa ENE 0.8mph /  1.3km/h 5mph /  8km/h 88% 0.00in /  0mm 0 W/m2
01:34 67.5 °F /  19.7 °C 63.9 °F /  17.7 °C 30.25in /  1024.3hPa ENE 1.4mph /  2.3km/h 7mph /  11.3km/h 88% 0.00in /  0mm 0 W/m2
01:39 67.5 °F /  19.7 °C 63.8 °F /  17.7 °C 30.25in /  1024.3hPa ENE 0.1mph /  0.2km/h 7mph /  11.3km/h 88% 0.00in /  0mm 0 W/m2
01:44 67.5 °F /  19.7 °C 63.8 °F /  17.7 °C 30.25in /  1024.3hPa ENE 0.1mph /  0.2km/h 7mph /  11.3km/h 88% 0.00in /  0mm 0 W/m2
01:49 67.5 °F /  19.7 °C 63.8 °F /  17.7 °C 30.24in /  1023.9hPa ENE 0.4mph /  0.6km/h 7mph /  11.3km/h 88% 0.00in /  0mm 0 W/m2
01:54 67.5 °F /  19.7 °C 63.8 °F /  17.7 °C 30.24in /  1023.9hPa ENE 0.6mph /  1km/h 7mph /  11.3km/h 88% 0.00in /  0mm 0 W/m2
01:59 67.5 °F /  19.7 °C 63.8 °F /  17.7 °C 30.24in /  1023.9hPa ENE 0.6mph /  1km/h 7mph /  11.3km/h 88% 0.00in /  0mm 0 W/m2
02:04 67.5 °F /  19.7 °C 63.8 °F /  17.7 °C 30.24in /  1023.9hPa ENE 0.2mph /  0.3km/h 7mph /  11.3km/h 88% 0.00in /  0mm 0 W/m2
02:09 67.5 °F /  19.7 °C 64.1 °F /  17.8 °C 30.24in /  1023.9hPa ENE 0.5mph /  0.8km/h 7mph /  11.3km/h 88.7% 0.00in /  0mm 0 W/m2
02:14 67.5 °F /  19.7 °C 64.2 °F /  17.9 °C 30.24in /  1023.9hPa ENE 0.9mph /  1.4km/h 7mph /  11.3km/h 89% 0.00in /  0mm 0 W/m2
02:19 67.5 °F /  19.7 °C 64.1 °F /  17.8 °C 30.24in /  1023.9hPa ENE 1.9mph /  3.1km/h 7mph /  11.3km/h 88.9% 0.00in /  0mm 0 W/m2
02:24 67.5 °F /  19.7 °C 63.8 °F /  17.7 °C 30.24in /  1023.9hPa ENE 0.8mph /  1.3km/h 7mph /  11.3km/h 88% 0.00in /  0mm 0 W/m2
02:29 67.5 °F /  19.7 °C 64 °F /  17.8 °C 30.24in /  1023.9hPa ENE 0.6mph /  1km/h 7mph /  11.3km/h 88.6% 0.00in /  0mm 0 W/m2
02:34 67.4 °F /  19.7 °C 64.1 °F /  17.8 °C 30.24in /  1023.9hPa ENE 0.8mph /  1.3km/h 7mph /  11.3km/h 89% 0.00in /  0mm 0 W/m2
02:39 67.4 °F /  19.7 °C 64.1 °F /  17.8 °C 30.24in /  1023.9hPa ENE 0.1mph /  0.2km/h 5mph /  8km/h 89% 0.00in /  0mm 0 W/m2
02:44 67.4 °F /  19.7 °C 64 °F /  17.8 °C 30.24in /  1023.9hPa ENE 1.2mph /  1.9km/h 5mph /  8km/h 88.8% 0.00in /  0mm 0 W/m2
02:49 67.3 °F /  19.6 °C 63.6 °F /  17.6 °C 30.24in /  1023.9hPa ENE 0.6mph /  1km/h 5mph /  8km/h 88% 0.00in /  0mm 0 W/m2
02:54 67.2 °F /  19.6 °C 63.5 °F /  17.5 °C 30.24in /  1023.9hPa ENE 1.8mph /  2.9km/h 6mph /  9.7km/h 88% 0.00in /  0mm 0 W/m2
02:59 67.1 °F /  19.5 °C 63.5 °F /  17.5 °C 30.24in /  1023.9hPa ENE 1.7mph /  2.7km/h 6mph /  9.7km/h 88% 0.00in /  0mm 0 W/m2
03:04 67.1 °F /  19.5 °C 63.4 °F /  17.4 °C 30.24in /  1023.9hPa NE 1.5mph /  2.4km/h 7mph /  11.3km/h 88% 0.00in /  0mm 0 W/m2
03:09 67 °F /  19.4 °C 63.3 °F /  17.4 °C 30.24in /  1023.9hPa NE 0.8mph /  1.3km/h 7mph /  11.3km/h 88% 0.00in /  0mm 0 W/m2
03:14 67 °F /  19.4 °C 63.3 °F /  17.4 °C 30.23in /  1023.6hPa ENE 1mph /  1.6km/h 7mph /  11.3km/h 88% 0.00in /  0mm 0 W/m2
03:19 67 °F /  19.4 °C 63.6 °F /  17.6 °C 30.23in /  1023.6hPa NE 1.3mph /  2.1km/h 7mph /  11.3km/h 88.9% 0.00in /  0mm 0 W/m2
03:24 66.9 °F /  19.4 °C 63.4 °F /  17.4 °C 30.23in /  1023.6hPa NE 0.8mph /  1.3km/h 7mph /  11.3km/h 88.4% 0.00in /  0mm 0 W/m2
03:29 66.9 °F /  19.4 °C 63.5 °F /  17.5 °C 30.24in /  1023.9hPa NE 0.3mph /  0.5km/h 7mph /  11.3km/h 89% 0.00in /  0mm 0 W/m2
03:34 66.8 °F /  19.3 °C 63.5 °F /  17.5 °C 30.23in /  1023.6hPa NE 0.1mph /  0.2km/h 7mph /  11.3km/h 89% 0.00in /  0mm 0 W/m2
03:39 66.8 °F /  19.3 °C 63.5 °F /  17.5 °C 30.23in /  1023.6hPa Calm   2mph /  3.2km/h 89% 0.00in /  0mm 0 W/m2
03:44 66.8 °F /  19.3 °C 63.5 °F /  17.5 °C 30.24in /  1023.9hPa NE 0.2mph /  0.3km/h 2mph /  3.2km/h 89% 0.00in /  0mm 0 W/m2
03:49 66.8 °F /  19.3 °C 63.5 °F /  17.5 °C 30.23in /  1023.6hPa Calm   2mph /  3.2km/h 89% 0.00in /  0mm 0 W/m2
03:54 66.8 °F /  19.3 °C 63.4 °F /  17.4 °C 30.23in /  1023.6hPa Calm   2mph /  3.2km/h 89% 0.00in /  0mm 0 W/m2
03:59 66.8 °F /  19.3 °C 63.4 °F /  17.4 °C 30.23in /  1023.6hPa NE 0.1mph /  0.2km/h 3mph /  4.8km/h 89% 0.00in /  0mm 0 W/m2
04:00 66.8 °F /  19.3 °C 63.5 °F /  17.5 °C 30.23in /  1023.6hPa Calm   3mph /  4.8km/h 89% 0.00in /  0mm 0 W/m2
04:09 66.7 °F /  19.3 °C 63.4 °F /  17.4 °C 30.24in /  1023.9hPa Calm     89% 0.00in /  0mm 0 W/m2
04:14 66.7 °F /  19.3 °C 63.4 °F /  17.4 °C 30.24in /  1023.9hPa Calm     89% 0.00in /  0mm 0 W/m2
04:19 66.7 °F /  19.3 °C 63.4 °F /  17.4 °C 30.24in /  1023.9hPa NE 0.1mph /  0.2km/h 2mph /  3.2km/h 89% 0.00in /  0mm 0 W/m2
04:24 66.7 °F /  19.3 °C 63.3 °F /  17.4 °C 30.24in /  1023.9hPa Calm   2mph /  3.2km/h 89% 0.00in /  0mm 0 W/m2
04:29 66.7 °F /  19.3 °C 63.3 °F /  17.4 °C 30.24in /  1023.9hPa Calm   2mph /  3.2km/h 89% 0.00in /  0mm 0 W/m2
04:34 66.6 °F /  19.2 °C 63.3 °F /  17.4 °C 30.24in /  1023.9hPa Calm   2mph /  3.2km/h 89% 0.00in /  0mm 0 W/m2
04:39 66.6 °F /  19.2 °C 63.3 °F /  17.4 °C 30.24in /  1023.9hPa Calm     89% 0.00in /  0mm 0 W/m2
04:44 66.6 °F /  19.2 °C 63.3 °F /  17.4 °C 30.24in /  1023.9hPa Calm     89% 0.00in /  0mm 0 W/m2
04:49 66.6 °F /  19.2 °C 63.3 °F /  17.4 °C 30.24in /  1023.9hPa Calm     89% 0.00in /  0mm 0 W/m2
04:54 66.6 °F /  19.2 °C 63.3 °F /  17.4 °C 30.24in /  1023.9hPa Calm     89% 0.00in /  0mm 0 W/m2
04:59 66.6 °F /  19.2 °C 63.2 °F /  17.3 °C 30.24in /  1023.9hPa Calm     89% 0.00in /  0mm 0 W/m2
05:04 66.6 °F /  19.2 °C 63.2 °F /  17.3 °C 30.24in /  1023.9hPa Calm     89% 0.00in /  0mm 0 W/m2
05:09 66.5 °F /  19.2 °C 63.2 °F /  17.3 °C 30.24in /  1023.9hPa NE 0.1mph /  0.2km/h 2mph /  3.2km/h 89% 0.00in /  0mm 0 W/m2
05:14 66.5 °F /  19.2 °C 63.2 °F /  17.3 °C 30.24in /  1023.9hPa NE 0.3mph /  0.5km/h 4mph /  6.4km/h 89% 0.00in /  0mm 0 W/m2
05:19 66.5 °F /  19.2 °C 63.2 °F /  17.3 °C 30.24in /  1023.9hPa NE 0.1mph /  0.2km/h 4mph /  6.4km/h 89% 0.00in /  0mm 0 W/m2
05:24 66.5 °F /  19.2 °C 63.2 °F /  17.3 °C 30.24in /  1023.9hPa NE 0.5mph /  0.8km/h 6mph /  9.7km/h 89% 0.00in /  0mm 0 W/m2
05:29 66.5 °F /  19.2 °C 63.2 °F /  17.3 °C 30.24in /  1023.9hPa ENE 0.6mph /  1km/h 6mph /  9.7km/h 89% 0.00in /  0mm 0 W/m2
05:34 66.5 °F /  19.2 °C 63.2 °F /  17.3 °C 30.25in /  1024.3hPa ENE 0.1mph /  0.2km/h 6mph /  9.7km/h 89% 0.00in /  0mm 0 W/m2
05:39 66.5 °F /  19.2 °C 63.2 °F /  17.3 °C 30.25in /  1024.3hPa Calm   3mph /  4.8km/h 89% 0.00in /  0mm 0 W/m2
05:44 66.5 °F /  19.2 °C 63.2 °F /  17.3 °C 30.25in /  1024.3hPa ENE 1mph /  1.6km/h 5mph /  8km/h 89% 0.00in /  0mm 0 W/m2
05:49 66.5 °F /  19.2 °C 63.2 °F /  17.3 °C 30.25in /  1024.3hPa ENE 0.4mph /  0.6km/h 5mph /  8km/h 89% 0.00in /  0mm 0 W/m2
05:54 66.4 °F /  19.1 °C 63.1 °F /  17.3 °C 30.25in /  1024.3hPa ENE 0.3mph /  0.5km/h 5mph /  8km/h 89% 0.00in /  0mm 0 W/m2
05:59 66.4 °F /  19.1 °C 63.1 °F /  17.3 °C 30.26in /  1024.6hPa ENE 1.1mph /  1.8km/h 5mph /  8km/h 89% 0.00in /  0mm 0 W/m2
06:04 66.4 °F /  19.1 °C 63.1 °F /  17.3 °C 30.26in /  1024.6hPa ENE 0.2mph /  0.3km/h 5mph /  8km/h 89% 0.00in /  0mm 0 W/m2
06:09 66.4 °F /  19.1 °C 63.1 °F /  17.3 °C 30.26in /  1024.6hPa ENE 0.6mph /  1km/h 5mph /  8km/h 89% 0.00in /  0mm 0 W/m2
06:14 66.4 °F /  19.1 °C 63.1 °F /  17.3 °C 30.26in /  1024.6hPa ENE 0.9mph /  1.4km/h 5mph /  8km/h 89% 0.00in /  0mm 0 W/m2
06:19 66.4 °F /  19.1 °C 63.1 °F /  17.3 °C 30.27in /  1024.9hPa ENE 0.5mph /  0.8km/h 5mph /  8km/h 89% 0.00in /  0mm 0 W/m2
06:30 66.4 °F /  19.1 °C 63.1 °F /  17.3 °C 30.26in /  1024.6hPa Calm   5mph /  8km/h 89% 0.00in /  0mm 0 W/m2
07:00 66.4 °F /  19.1 °C 63.4 °F /  17.4 °C 30.27in /  1024.9hPa Calm   5mph /  8km/h 90% 0.00in /  0mm 0 W/m2
07:30 66.3 °F /  19.1 °C 63.3 °F /  17.4 °C 30.27in /  1024.9hPa Calm   6mph /  9.7km/h 90% 0.00in /  0mm 6 W/m2
08:04 66.6 °F /  19.2 °C 63.2 °F /  17.3 °C 30.28in /  1025.3hPa Calm     89% 0.00in /  0mm 25 W/m2
08:09 66.6 °F /  19.2 °C 63.3 °F /  17.4 °C 30.28in /  1025.3hPa Calm     89% 0.00in /  0mm 25 W/m2
08:14 66.7 °F /  19.3 °C 63.3 °F /  17.4 °C 30.28in /  1025.3hPa Calm   1mph /  1.6km/h 89% 0.00in /  0mm 30 W/m2
08:19 66.7 °F /  19.3 °C 63.4 °F /  17.4 °C 30.28in /  1025.3hPa NE 0.1mph /  0.2km/h 2mph /  3.2km/h 89.1% 0.00in /  0mm 44 W/m2
08:24 66.8 °F /  19.3 °C 63.6 °F /  17.6 °C 30.28in /  1025.3hPa NE 0.1mph /  0.2km/h 3mph /  4.8km/h 89.4% 0.00in /  0mm 63 W/m2
08:29 66.9 °F /  19.4 °C 63.5 °F /  17.5 °C 30.28in /  1025.3hPa Calm   3mph /  4.8km/h 89% 0.00in /  0mm 58 W/m2
08:34 66.9 °F /  19.4 °C 63.6 °F /  17.6 °C 30.28in /  1025.3hPa NE 0.3mph /  0.5km/h 4mph /  6.4km/h 89% 0.00in /  0mm 56 W/m2
08:39 67 °F /  19.4 °C 63.6 °F /  17.6 °C 30.28in /  1025.3hPa East 0.1mph /  0.2km/h 5mph /  8km/h 88.9% 0.00in /  0mm 42 W/m2
08:44 67 °F /  19.4 °C 63.3 °F /  17.4 °C 30.28in /  1025.3hPa Calm   5mph /  8km/h 88% 0.00in /  0mm 28 W/m2
08:49 67 °F /  19.4 °C 63.3 °F /  17.4 °C 30.28in /  1025.3hPa ENE 0.3mph /  0.5km/h 5mph /  8km/h 88% 0.00in /  0mm 32 W/m2
08:54 67 °F /  19.4 °C 63.4 °F /  17.4 °C 30.28in /  1025.3hPa ENE 0.2mph /  0.3km/h 5mph /  8km/h 88.2% 0.00in /  0mm 39 W/m2
08:59 67 °F /  19.4 °C 63.4 °F /  17.4 °C 30.28in /  1025.3hPa ENE 0.4mph /  0.6km/h 5mph /  8km/h 88% 0.00in /  0mm 39 W/m2
09:04 67 °F /  19.4 °C 63.3 °F /  17.4 °C 30.28in /  1025.3hPa ENE 0.1mph /  0.2km/h 5mph /  8km/h 88% 0.00in /  0mm 35 W/m2
09:09 67 °F /  19.4 °C 63.4 °F /  17.4 °C 30.28in /  1025.3hPa Calm   5mph /  8km/h 88.1% 0.00in /  0mm 40 W/m2
09:14 67.1 °F /  19.5 °C 63.6 °F /  17.6 °C 30.28in /  1025.3hPa Calm   5mph /  8km/h 88.4% 0.00in /  0mm 56 W/m2
09:19 67.1 °F /  19.5 °C 63.4 °F /  17.4 °C 30.27in /  1024.9hPa ENE 0.2mph /  0.3km/h 5mph /  8km/h 88% 0.00in /  0mm 62 W/m2
09:24 67.2 °F /  19.6 °C 63.6 °F /  17.6 °C 30.27in /  1024.9hPa Calm   5mph /  8km/h 88.2% 0.00in /  0mm 62 W/m2
09:29 67.2 °F /  19.6 °C 63.6 °F /  17.6 °C 30.27in /  1024.9hPa ENE 0.2mph /  0.3km/h 5mph /  8km/h 88% 0.00in /  0mm 65 W/m2
09:34 67.3 °F /  19.6 °C 63.8 °F /  17.7 °C 30.27in /  1024.9hPa Calm   5mph /  8km/h 88.5% 0.00in /  0mm 60 W/m2
09:39 67.4 °F /  19.7 °C 63.7 °F /  17.6 °C 30.27in /  1024.9hPa NNW 0.3mph /  0.5km/h 4mph /  6.4km/h 88% 0.00in /  0mm 51 W/m2
09:44 67.4 °F /  19.7 °C 63.8 °F /  17.7 °C 30.27in /  1024.9hPa Calm   4mph /  6.4km/h 88% 0.00in /  0mm 56 W/m2
09:49 67.4 °F /  19.7 °C 63.7 °F /  17.6 °C 30.27in /  1024.9hPa Calm   4mph /  6.4km/h 88% 0.00in /  0mm 56 W/m2
09:54 67.4 °F /  19.7 °C 63.6 °F /  17.6 °C 30.27in /  1024.9hPa North 0.6mph /  1km/h 4mph /  6.4km/h 87.6% 0.00in /  0mm 54 W/m2
09:59 67.4 °F /  19.7 °C 63.7 °F /  17.6 °C 30.27in /  1024.9hPa Calm   4mph /  6.4km/h 88% 0.00in /  0mm 63 W/m2
10:04 67.4 °F /  19.7 °C 63.8 °F /  17.7 °C 30.27in /  1024.9hPa North 0.3mph /  0.5km/h 4mph /  6.4km/h 88% 0.00in /  0mm 86 W/m2
10:09 67.4 °F /  19.7 °C 63.7 °F /  17.6 °C 30.27in /  1024.9hPa Calm   3mph /  4.8km/h 88% 0.00in /  0mm 95 W/m2
10:14 67.5 °F /  19.7 °C 63.8 °F /  17.7 °C 30.26in /  1024.6hPa NNE 0.3mph /  0.5km/h 3mph /  4.8km/h 88% 0.00in /  0mm 91 W/m2
10:19 67.5 °F /  19.7 °C 63.8 °F /  17.7 °C 30.26in /  1024.6hPa NE 0.8mph /  1.3km/h 4mph /  6.4km/h 88% 0.00in /  0mm 88 W/m2
10:24 67.5 °F /  19.7 °C 63.8 °F /  17.7 °C 30.26in /  1024.6hPa NE 0.7mph /  1.1km/h 7mph /  11.3km/h 88% 0.00in /  0mm 91 W/m2
10:29 67.6 °F /  19.8 °C 63.9 °F /  17.7 °C 30.26in /  1024.6hPa NE 0.3mph /  0.5km/h 7mph /  11.3km/h 88% 0.00in /  0mm 121 W/m2
10:34 67.7 °F /  19.8 °C 64 °F /  17.8 °C 30.26in /  1024.6hPa ENE 0.3mph /  0.5km/h 7mph /  11.3km/h 88% 0.00in /  0mm 134 W/m2
10:39 67.9 °F /  19.9 °C 64.2 °F /  17.9 °C 30.26in /  1024.6hPa NE 0.7mph /  1.1km/h 7mph /  11.3km/h 88% 0.00in /  0mm 127 W/m2
10:44 68 °F /  20 °C 64.3 °F /  17.9 °C 30.26in /  1024.6hPa NNE 0.1mph /  0.2km/h 7mph /  11.3km/h 88% 0.00in /  0mm 127 W/m2
10:49 68.1 °F /  20.1 °C 64.5 °F /  18.1 °C 30.26in /  1024.6hPa NNW 0.4mph /  0.6km/h 7mph /  11.3km/h 88% 0.00in /  0mm 111 W/m2
10:54 68.3 °F /  20.2 °C 64.5 °F /  18.1 °C 30.26in /  1024.6hPa North 0.2mph /  0.3km/h 7mph /  11.3km/h 87.8% 0.00in /  0mm 97 W/m2
10:59 68.3 °F /  20.2 °C 64.5 °F /  18.1 °C 30.26in /  1024.6hPa Calm   7mph /  11.3km/h 87.5% 0.00in /  0mm 100 W/m2
11:04 68.5 °F /  20.3 °C 64.8 °F /  18.2 °C 30.25in /  1024.3hPa Calm   7mph /  11.3km/h 87.9% 0.00in /  0mm 97 W/m2
11:09 68.6 °F /  20.3 °C 64.6 °F /  18.1 °C 30.25in /  1024.3hPa NNE 0.4mph /  0.6km/h 4mph /  6.4km/h 87% 0.00in /  0mm 97 W/m2
11:14 68.6 °F /  20.3 °C 64.6 °F /  18.1 °C 30.26in /  1024.6hPa ENE 0.7mph /  1.1km/h 4mph /  6.4km/h 87% 0.00in /  0mm 127 W/m2
11:19 68.8 °F /  20.4 °C 65.1 °F /  18.4 °C 30.26in /  1024.6hPa NW 0.1mph /  0.2km/h 4mph /  6.4km/h 88% 0.00in /  0mm 142 W/m2
11:24 69.1 °F /  20.6 °C 65.3 °F /  18.5 °C 30.25in /  1024.3hPa NNW 0.8mph /  1.3km/h 5mph /  8km/h 87.9% 0.00in /  0mm 171 W/m2
11:29 69.3 °F /  20.7 °C 65.2 °F /  18.4 °C 30.25in /  1024.3hPa NNE 0.4mph /  0.6km/h 5mph /  8km/h 86.9% 0.00in /  0mm 193 W/m2
11:34 69.4 °F /  20.8 °C 65.3 °F /  18.5 °C 30.25in /  1024.3hPa NNE 0.1mph /  0.2km/h 5mph /  8km/h 86.9% 0.00in /  0mm 200 W/m2
11:39 69.6 °F /  20.9 °C 65.6 °F /  18.7 °C 30.25in /  1024.3hPa NNE 0.4mph /  0.6km/h 4mph /  6.4km/h 86.9% 0.00in /  0mm 192 W/m2
11:44 69.8 °F /  21 °C 65.5 °F /  18.6 °C 30.25in /  1024.3hPa NE 0.5mph /  0.8km/h 5mph /  8km/h 86% 0.00in /  0mm 206 W/m2
11:49 70.1 °F /  21.2 °C 66 °F /  18.9 °C 30.25in /  1024.3hPa ENE 2.2mph /  3.5km/h 6mph /  9.7km/h 86.7% 0.00in /  0mm 202 W/m2
11:54 70.4 °F /  21.3 °C 65.9 °F /  18.8 °C 30.24in /  1023.9hPa ENE 0.1mph /  0.2km/h 6mph /  9.7km/h 85.8% 0.00in /  0mm 188 W/m2
11:59 70.6 °F /  21.4 °C 66.1 °F /  18.9 °C 30.24in /  1023.9hPa East 0.2mph /  0.3km/h 6mph /  9.7km/h 85.6% 0.00in /  0mm 172 W/m2
12:09 70.8 °F /  21.6 °C 66.1 °F /  18.9 °C 30.24in /  1023.9hPa Calm     85.2% 0.00in /  0mm 130 W/m2
12:14 70.8 °F /  21.6 °C 66.1 °F /  18.9 °C 30.24in /  1023.9hPa Calm   2mph /  3.2km/h 85% 0.00in /  0mm 125 W/m2
12:19 70.9 °F /  21.6 °C 66.2 °F /  19 °C 30.24in /  1023.9hPa Calm   2mph /  3.2km/h 85% 0.00in /  0mm 151 W/m2
12:24 71.1 °F /  21.7 °C 66.5 °F /  19.2 °C 30.25in /  1024.3hPa ENE 0.2mph /  0.3km/h 3mph /  4.8km/h 85.5% 0.00in /  0mm 151 W/m2
12:29 71.2 °F /  21.8 °C 66.4 °F /  19.1 °C 30.25in /  1024.3hPa ENE 0.1mph /  0.2km/h 3mph /  4.8km/h 84.7% 0.00in /  0mm 149 W/m2
12:34 71.4 °F /  21.9 °C 66.7 °F /  19.3 °C 30.24in /  1023.9hPa ENE 0.1mph /  0.2km/h 3mph /  4.8km/h 85% 0.00in /  0mm 171 W/m2
12:39 71.7 °F /  22.1 °C 66.9 °F /  19.4 °C 30.24in /  1023.9hPa ENE 0.2mph /  0.3km/h 4mph /  6.4km/h 84.9% 0.00in /  0mm 181 W/m2
12:44 71.8 °F /  22.1 °C 66.7 °F /  19.3 °C 30.24in /  1023.9hPa ENE 0.3mph /  0.5km/h 5mph /  8km/h 84% 0.00in /  0mm 156 W/m2
12:49 71.9 °F /  22.2 °C 66.8 °F /  19.3 °C 30.24in /  1023.9hPa ENE 0.2mph /  0.3km/h 5mph /  8km/h 84.1% 0.00in /  0mm 144 W/m2
12:54 72 °F /  22.2 °C 67 °F /  19.4 °C 30.24in /  1023.9hPa ENE 0.7mph /  1.1km/h 6mph /  9.7km/h 84.3% 0.00in /  0mm 135 W/m2
12:59 72.1 °F /  22.3 °C 67 °F /  19.4 °C 30.23in /  1023.6hPa Calm   6mph /  9.7km/h 84% 0.00in /  0mm 163 W/m2
13:04 72.1 °F /  22.3 °C 66.9 °F /  19.4 °C 30.23in /  1023.6hPa Calm   6mph /  9.7km/h 83.8% 0.00in /  0mm 135 W/m2
13:09 72.1 °F /  22.3 °C 67 °F /  19.4 °C 30.23in /  1023.6hPa ENE 0.1mph /  0.2km/h 4mph /  6.4km/h 84% 0.00in /  0mm 120 W/m2
13:14 72.2 °F /  22.3 °C 67.1 °F /  19.5 °C 30.23in /  1023.6hPa Calm   4mph /  6.4km/h 84% 0.00in /  0mm 120 W/m2
13:19 72.1 °F /  22.3 °C 66.9 °F /  19.4 °C 30.23in /  1023.6hPa ENE 0.5mph /  0.8km/h 4mph /  6.4km/h 83.7% 0.00in /  0mm 142 W/m2
13:24 72.2 °F /  22.3 °C 67 °F /  19.4 °C 30.23in /  1023.6hPa ENE 0.8mph /  1.3km/h 6mph /  9.7km/h 83.8% 0.00in /  0mm 287 W/m2
13:29 72.3 °F /  22.4 °C 67.2 °F /  19.6 °C 30.23in /  1023.6hPa Calm   6mph /  9.7km/h 84% 0.00in /  0mm 313 W/m2
13:34 72.5 °F /  22.5 °C 67.5 °F /  19.7 °C 30.22in /  1023.2hPa Calm   6mph /  9.7km/h 84.2% 0.00in /  0mm 197 W/m2
13:39 72.8 °F /  22.7 °C 67.6 °F /  19.8 °C 30.22in /  1023.2hPa Calm     83.8% 0.00in /  0mm 156 W/m2
13:44 73 °F /  22.8 °C 67.9 °F /  19.9 °C 30.22in /  1023.2hPa ENE 0.1mph /  0.2km/h 2mph /  3.2km/h 84% 0.00in /  0mm 146 W/m2
13:49 73 °F /  22.8 °C 67.6 °F /  19.8 °C 30.22in /  1023.2hPa NNE 1.1mph /  1.8km/h 6mph /  9.7km/h 83.2% 0.00in /  0mm 171 W/m2
13:54 73.1 °F /  22.8 °C 67.7 °F /  19.8 °C 30.21in /  1022.9hPa Calm   6mph /  9.7km/h 83.3% 0.00in /  0mm 193 W/m2
13:59 73.1 °F /  22.8 °C 67.4 °F /  19.7 °C 30.21in /  1022.9hPa Calm   6mph /  9.7km/h 82.5% 0.00in /  0mm 185 W/m2
14:04 73.1 °F /  22.8 °C 67.6 °F /  19.8 °C 30.21in /  1022.9hPa NE 0.4mph /  0.6km/h 6mph /  9.7km/h 83% 0.00in /  0mm 149 W/m2
14:09 73.1 °F /  22.8 °C 67.6 °F /  19.8 °C 30.21in /  1022.9hPa WNW 0.7mph /  1.1km/h 6mph /  9.7km/h 83% 0.00in /  0mm 120 W/m2
14:14 73.1 °F /  22.8 °C 67.7 °F /  19.8 °C 30.20in /  1022.6hPa WNW 0.1mph /  0.2km/h 6mph /  9.7km/h 83% 0.00in /  0mm 121 W/m2
14:19 73.2 °F /  22.9 °C 67.7 °F /  19.8 °C 30.20in /  1022.6hPa WNW 0.1mph /  0.2km/h 6mph /  9.7km/h 83% 0.00in /  0mm 172 W/m2
14:24 73.3 °F /  22.9 °C 67.7 °F /  19.8 °C 30.20in /  1022.6hPa Calm   6mph /  9.7km/h 82.6% 0.00in /  0mm 200 W/m2
14:29 73.3 °F /  22.9 °C 67.9 °F /  19.9 °C 30.19in /  1022.2hPa NNE 0.1mph /  0.2km/h 6mph /  9.7km/h 83.1% 0.00in /  0mm 214 W/m2
14:34 73.5 °F /  23.1 °C 68.2 °F /  20.1 °C 30.19in /  1022.2hPa NE 0.2mph /  0.3km/h 6mph /  9.7km/h 83.3% 0.00in /  0mm 193 W/m2
14:39 73.7 °F /  23.2 °C 68.2 °F /  20.1 °C 30.19in /  1022.2hPa Calm   3mph /  4.8km/h 83% 0.00in /  0mm 178 W/m2
14:44 73.9 °F /  23.3 °C 68.2 °F /  20.1 °C 30.19in /  1022.2hPa NE 0.1mph /  0.2km/h 4mph /  6.4km/h 82.5% 0.00in /  0mm 193 W/m2
14:49 74.1 °F /  23.4 °C 68.4 °F /  20.2 °C 30.19in /  1022.2hPa Calm   4mph /  6.4km/h 82.5% 0.00in /  0mm 197 W/m2
14:54 74.3 °F /  23.5 °C 68.7 °F /  20.4 °C 30.19in /  1022.2hPa NNE 0.2mph /  0.3km/h 4mph /  6.4km/h 82.7% 0.00in /  0mm 156 W/m2
14:59 74.4 °F /  23.6 °C 68.3 °F /  20.2 °C 30.19in /  1022.2hPa ENE 0.3mph /  0.5km/h 4mph /  6.4km/h 81.3% 0.00in /  0mm 141 W/m2
15:04 74.3 °F /  23.5 °C 68 °F /  20 °C 30.19in /  1022.2hPa Calm   4mph /  6.4km/h 80.8% 0.00in /  0mm 128 W/m2
15:09 74.3 °F /  23.5 °C 68.4 °F /  20.2 °C 30.19in /  1022.2hPa NE 0.1mph /  0.2km/h 3mph /  4.8km/h 81.8% 0.00in /  0mm 174 W/m2
15:14 74.3 °F /  23.5 °C 68.4 °F /  20.2 °C 30.19in /  1022.2hPa NNE 0.1mph /  0.2km/h 3mph /  4.8km/h 81.9% 0.00in /  0mm 172 W/m2
15:19 74.4 °F /  23.6 °C 68.6 °F /  20.3 °C 30.19in /  1022.2hPa NNE 0.3mph /  0.5km/h 4mph /  6.4km/h 82.1% 0.00in /  0mm 146 W/m2
15:24 74.5 °F /  23.6 °C 68.6 °F /  20.3 °C 30.19in /  1022.2hPa NE 0.1mph /  0.2km/h 4mph /  6.4km/h 82% 0.00in /  0mm 130 W/m2
15:29 74.4 °F /  23.6 °C 68.5 °F /  20.3 °C 30.18in /  1021.9hPa NNE 0.3mph /  0.5km/h 5mph /  8km/h 81.6% 0.00in /  0mm 97 W/m2
15:34 74.4 °F /  23.6 °C 68.2 °F /  20.1 °C 30.19in /  1022.2hPa East 0.8mph /  1.3km/h 5mph /  8km/h 81.1% 0.00in /  0mm 74 W/m2
15:39 74.3 °F /  23.5 °C 68.4 °F /  20.2 °C 30.19in /  1022.2hPa Calm   3mph /  4.8km/h 81.9% 0.00in /  0mm 77 W/m2
15:44 74.2 °F /  23.4 °C 68.4 °F /  20.2 °C 30.19in /  1022.2hPa East 0.3mph /  0.5km/h 3mph /  4.8km/h 82% 0.00in /  0mm 74 W/m2
15:49 74.2 °F /  23.4 °C 68.5 °F /  20.3 °C 30.18in /  1021.9hPa ENE 0.2mph /  0.3km/h 3mph /  4.8km/h 82.3% 0.00in /  0mm 79 W/m2
15:54 74.1 °F /  23.4 °C 68.5 °F /  20.3 °C 30.18in /  1021.9hPa ENE 0.5mph /  0.8km/h 5mph /  8km/h 82.6% 0.00in /  0mm 69 W/m2
15:59 74 °F /  23.3 °C 68.2 °F /  20.1 °C 30.18in /  1021.9hPa ENE 0.8mph /  1.3km/h 5mph /  8km/h 82% 0.00in /  0mm 58 W/m2
16:00 74 °F /  23.3 °C 68.2 °F /  20.1 °C 30.18in /  1021.9hPa Calm   5mph /  8km/h 82% 0.00in /  0mm 51 W/m2
16:09 74 °F /  23.3 °C 68.5 °F /  20.3 °C 30.18in /  1021.9hPa Calm     83% 0.00in /  0mm 46 W/m2
16:14 73.9 °F /  23.3 °C 68.5 °F /  20.3 °C 30.18in /  1021.9hPa ENE 0.1mph /  0.2km/h 1mph /  1.6km/h 83.3% 0.00in /  0mm 47 W/m2
16:19 73.9 °F /  23.3 °C 68.4 °F /  20.2 °C 30.18in /  1021.9hPa ENE 0.1mph /  0.2km/h 2mph /  3.2km/h 83.1% 0.00in /  0mm 51 W/m2
16:24 73.8 °F /  23.2 °C 68.3 °F /  20.2 °C 30.18in /  1021.9hPa ENE 0.2mph /  0.3km/h 3mph /  4.8km/h 83% 0.00in /  0mm 53 W/m2
16:29 73.7 °F /  23.2 °C 68.3 °F /  20.2 °C 30.18in /  1021.9hPa ENE 0.3mph /  0.5km/h 3mph /  4.8km/h 83.3% 0.00in /  0mm 42 W/m2
16:34 73.7 °F /  23.2 °C 68.6 °F /  20.3 °C 30.18in /  1021.9hPa ENE 0.2mph /  0.3km/h 3mph /  4.8km/h 84% 0.00in /  0mm 42 W/m2
16:39 73.7 °F /  23.2 °C 68.8 °F /  20.4 °C 30.18in /  1021.9hPa ENE 0.1mph /  0.2km/h 3mph /  4.8km/h 84.8% 0.00in /  0mm 33 W/m2
16:44 73.5 °F /  23.1 °C 68.7 °F /  20.4 °C 30.17in /  1021.6hPa ENE 0.4mph /  0.6km/h 4mph /  6.4km/h 85% 0.00in /  0mm 30 W/m2
16:49 73.3 °F /  22.9 °C 68.8 °F /  20.4 °C 30.17in /  1021.6hPa ENE 0.6mph /  1km/h 4mph /  6.4km/h 85.6% 0.00in /  0mm 28 W/m2
16:54 73.1 °F /  22.8 °C 68.7 °F /  20.4 °C 30.17in /  1021.6hPa Calm   4mph /  6.4km/h 86% 0.00in /  0mm 23 W/m2
16:59 73 °F /  22.8 °C 68.9 °F /  20.5 °C 30.17in /  1021.6hPa Calm   4mph /  6.4km/h 86.9% 0.00in /  0mm 23 W/m2
17:04 72.8 °F /  22.7 °C 68.8 °F /  20.4 °C 30.17in /  1021.6hPa ENE 0.6mph /  1km/h 5mph /  8km/h 87% 0.00in /  0mm 21 W/m2
17:09 72.7 °F /  22.6 °C 68.6 °F /  20.3 °C 30.16in /  1021.2hPa Calm   5mph /  8km/h 87% 0.00in /  0mm 21 W/m2
17:14 72.6 °F /  22.6 °C 68.6 °F /  20.3 °C 30.16in /  1021.2hPa ENE 0.2mph /  0.3km/h 5mph /  8km/h 87.3% 0.00in /  0mm 19 W/m2
17:19 72.5 °F /  22.5 °C 68.8 °F /  20.4 °C 30.16in /  1021.2hPa Calm   5mph /  8km/h 88% 0.00in /  0mm 18 W/m2
17:24 72.3 °F /  22.4 °C 68.6 °F /  20.3 °C 30.16in /  1021.2hPa North 0.5mph /  0.8km/h 5mph /  8km/h 88% 0.00in /  0mm 12 W/m2
17:29 72.2 °F /  22.3 °C 68.4 °F /  20.2 °C 30.17in /  1021.6hPa Calm   5mph /  8km/h 88% 0.00in /  0mm 7 W/m2
17:34 72.1 °F /  22.3 °C 68.7 °F /  20.4 °C 30.17in /  1021.6hPa Calm   5mph /  8km/h 89% 0.00in /  0mm 11 W/m2
17:39 72 °F /  22.2 °C 68.6 °F /  20.3 °C 30.17in /  1021.6hPa Calm     89% 0.00in /  0mm 11 W/m2
17:44 71.9 °F /  22.2 °C 68.5 °F /  20.3 °C 30.16in /  1021.2hPa NNE 0.1mph /  0.2km/h 2mph /  3.2km/h 89% 0.00in /  0mm 11 W/m2
17:49 71.9 °F /  22.2 °C 68.6 °F /  20.3 °C 30.16in /  1021.2hPa NNE 0.2mph /  0.3km/h 3mph /  4.8km/h 89.4% 0.00in /  0mm 9 W/m2
17:54 71.7 °F /  22.1 °C 68.3 °F /  20.2 °C 30.17in /  1021.6hPa Calm   3mph /  4.8km/h 89.1% 0.00in /  0mm 7 W/m2
17:59 71.6 °F /  22 °C 68.3 °F /  20.2 °C 30.17in /  1021.6hPa Calm   3mph /  4.8km/h 89.4% 0.00in /  0mm 11 W/m2
18:04 71.5 °F /  21.9 °C 68.4 °F /  20.2 °C 30.17in /  1021.6hPa North 0.1mph /  0.2km/h 4mph /  6.4km/h 90% 0.00in /  0mm 11 W/m2
18:09 71.5 °F /  21.9 °C 68.4 °F /  20.2 °C 30.17in /  1021.6hPa Calm   4mph /  6.4km/h 90% 0.00in /  0mm 5 W/m2
18:14 71.3 °F /  21.8 °C 68.3 °F /  20.2 °C 30.16in /  1021.2hPa Calm   4mph /  6.4km/h 90% 0.00in /  0mm 0 W/m2
18:19 71.2 °F /  21.8 °C 68.3 °F /  20.2 °C 30.16in /  1021.2hPa Calm   4mph /  6.4km/h 90.5% 0.00in /  0mm 7 W/m2
18:24 71.1 °F /  21.7 °C 68.3 °F /  20.2 °C 30.16in /  1021.2hPa North 0.1mph /  0.2km/h 4mph /  6.4km/h 91% 0.00in /  0mm 9 W/m2
18:29 70.9 °F /  21.6 °C 68.2 °F /  20.1 °C 30.16in /  1021.2hPa NNE 0.5mph /  0.8km/h 4mph /  6.4km/h 91% 0.00in /  0mm 9 W/m2
18:34 70.8 °F /  21.6 °C 68 °F /  20 °C 30.16in /  1021.2hPa North 0.5mph /  0.8km/h 7mph /  11.3km/h 91% 0.00in /  0mm 9 W/m2
18:39 70.6 °F /  21.4 °C 68 °F /  20 °C 30.16in /  1021.2hPa Calm   7mph /  11.3km/h 91.6% 0.00in /  0mm 9 W/m2
18:44 70.5 °F /  21.4 °C 68 °F /  20 °C 30.15in /  1020.9hPa Calm   7mph /  11.3km/h 92% 0.00in /  0mm 5 W/m2
18:49 70.4 °F /  21.3 °C 68 °F /  20 °C 30.15in /  1020.9hPa Calm   7mph /  11.3km/h 92% 0.00in /  0mm 0 W/m2
18:54 70.3 °F /  21.3 °C 67.9 °F /  19.9 °C 30.15in /  1020.9hPa Calm   7mph /  11.3km/h 92% 0.00in /  0mm 0 W/m2
18:59 70.2 °F /  21.2 °C 67.8 °F /  19.9 °C 30.15in /  1020.9hPa Calm   7mph /  11.3km/h 92% 0.00in /  0mm 0 W/m2
19:04 70.1 °F /  21.2 °C 67.7 °F /  19.8 °C 30.15in /  1020.9hPa Calm   7mph /  11.3km/h 92% 0.00in /  0mm 0 W/m2
19:09 70.1 °F /  21.2 °C 67.7 °F /  19.8 °C 30.15in /  1020.9hPa Calm     92.2% 0.00in /  0mm 0 W/m2
19:14 70 °F /  21.1 °C 67.9 °F /  19.9 °C 30.15in /  1020.9hPa Calm     93% 0.00in /  0mm 0 W/m2
19:19 69.9 °F /  21.1 °C 67.7 °F /  19.8 °C 30.15in /  1020.9hPa North 0.1mph /  0.2km/h 3mph /  4.8km/h 92.7% 0.00in /  0mm 0 W/m2
19:24 69.8 °F /  21 °C 67.7 °F /  19.8 °C 30.15in /  1020.9hPa Calm   3mph /  4.8km/h 93% 0.00in /  0mm 0 W/m2
19:29 69.8 °F /  21 °C 67.7 °F /  19.8 °C 30.15in /  1020.9hPa North 0.1mph /  0.2km/h 3mph /  4.8km/h 93% 0.00in /  0mm 0 W/m2
19:34 69.8 °F /  21 °C 67.7 °F /  19.8 °C 30.15in /  1020.9hPa Calm   3mph /  4.8km/h 93% 0.00in /  0mm 0 W/m2
19:39 69.8 °F /  21 °C 67.7 °F /  19.8 °C 30.15in /  1020.9hPa Calm   2mph /  3.2km/h 93% 0.00in /  0mm 0 W/m2
19:44 69.7 °F /  20.9 °C 67.6 °F /  19.8 °C 30.15in /  1020.9hPa Calm   2mph /  3.2km/h 93% 0.00in /  0mm 0 W/m2
19:49 69.7 °F /  20.9 °C 67.6 °F /  19.8 °C 30.15in /  1020.9hPa Calm   2mph /  3.2km/h 93% 0.00in /  0mm 0 W/m2
19:54 69.6 °F /  20.9 °C 67.5 °F /  19.7 °C 30.15in /  1020.9hPa Calm   2mph /  3.2km/h 93% 0.00in /  0mm 0 W/m2
19:59 69.5 °F /  20.8 °C 67.4 °F /  19.7 °C 30.15in /  1020.9hPa Calm   2mph /  3.2km/h 93% 0.00in /  0mm 0 W/m2
20:09 69.5 °F /  20.8 °C 67.4 °F /  19.7 °C 30.15in /  1020.9hPa North 0.4mph /  0.6km/h 5mph /  8km/h 93% 0.00in /  0mm 0 W/m2
20:14 69.5 °F /  20.8 °C 67.4 °F /  19.7 °C 30.15in /  1020.9hPa Calm   5mph /  8km/h 93% 0.00in /  0mm 0 W/m2
20:19 69.4 °F /  20.8 °C 67.3 °F /  19.6 °C 30.15in /  1020.9hPa Calm   5mph /  8km/h 93% 0.00in /  0mm 0 W/m2
20:24 69.4 °F /  20.8 °C 67.1 °F /  19.5 °C 30.15in /  1020.9hPa Calm   5mph /  8km/h 92.3% 0.00in /  0mm 0 W/m2
20:29 69.4 °F /  20.8 °C 67 °F /  19.4 °C 30.15in /  1020.9hPa Calm   5mph /  8km/h 92% 0.00in /  0mm 0 W/m2
20:34 69.5 °F /  20.8 °C 67 °F /  19.4 °C 30.15in /  1020.9hPa Calm   5mph /  8km/h 92% 0.00in /  0mm 0 W/m2
20:39 69.4 °F /  20.8 °C 67 °F /  19.4 °C 30.15in /  1020.9hPa Calm   2mph /  3.2km/h 92% 0.00in /  0mm 0 W/m2
20:44 69.4 °F /  20.8 °C 66.9 °F /  19.4 °C 30.15in /  1020.9hPa North 0.1mph /  0.2km/h 4mph /  6.4km/h 92% 0.00in /  0mm 0 W/m2
20:49 69.3 °F /  20.7 °C 66.8 °F /  19.3 °C 30.15in /  1020.9hPa Calm   4mph /  6.4km/h 92% 0.00in /  0mm 0 W/m2
20:54 69.2 °F /  20.7 °C 66.8 °F /  19.3 °C 30.15in /  1020.9hPa Calm   4mph /  6.4km/h 92% 0.00in /  0mm 0 W/m2
20:59 69.1 °F /  20.6 °C 66.7 °F /  19.3 °C 30.15in /  1020.9hPa Calm   4mph /  6.4km/h 92% 0.00in /  0mm 0 W/m2
21:04 69 °F /  20.6 °C 66.6 °F /  19.2 °C 30.15in /  1020.9hPa Calm   4mph /  6.4km/h 92% 0.00in /  0mm 0 W/m2
21:09 69 °F /  20.6 °C 66.6 °F /  19.2 °C 30.15in /  1020.9hPa Calm     92% 0.00in /  0mm 0 W/m2
21:14 69 °F /  20.6 °C 66.6 °F /  19.2 °C 30.15in /  1020.9hPa Calm     92% 0.00in /  0mm 0 W/m2
21:19 69 °F /  20.6 °C 66.8 °F /  19.3 °C 30.15in /  1020.9hPa Calm     92.6% 0.00in /  0mm 0 W/m2
21:24 69 °F /  20.6 °C 66.9 °F /  19.4 °C 30.15in /  1020.9hPa Calm     93% 0.00in /  0mm 0 W/m2
21:29 69 °F /  20.6 °C 66.9 °F /  19.4 °C 30.15in /  1020.9hPa Calm     93% 0.00in /  0mm 0 W/m2
21:34 69 °F /  20.6 °C 66.9 °F /  19.4 °C 30.15in /  1020.9hPa Calm     93% 0.00in /  0mm 0 W/m2
21:39 69 °F /  20.6 °C 66.9 °F /  19.4 °C 30.15in /  1020.9hPa Calm     93% 0.00in /  0mm 0 W/m2
21:44 69 °F /  20.6 °C 66.9 °F /  19.4 °C 30.15in /  1020.9hPa Calm     93% 0.00in /  0mm 0 W/m2
21:49 69 °F /  20.6 °C 66.9 °F /  19.4 °C 30.15in /  1020.9hPa Calm     93% 0.00in /  0mm 0 W/m2
21:54 69 °F /  20.6 °C 66.9 °F /  19.4 °C 30.15in /  1020.9hPa Calm     93% 0.00in /  0mm 0 W/m2
21:59 69 °F /  20.6 °C 66.9 °F /  19.4 °C 30.15in /  1020.9hPa Calm     93% 0.00in /  0mm 0 W/m2
22:04 69 °F /  20.6 °C 66.9 °F /  19.4 °C 30.15in /  1020.9hPa Calm     93% 0.00in /  0mm 0 W/m2
22:09 69 °F /  20.6 °C 66.9 °F /  19.4 °C 30.15in /  1020.9hPa Calm     93% 0.00in /  0mm 0 W/m2
22:14 69 °F /  20.6 °C 66.9 °F /  19.4 °C 30.14in /  1020.5hPa Calm     93% 0.00in /  0mm 0 W/m2
22:19 69 °F /  20.6 °C 66.9 °F /  19.4 °C 30.14in /  1020.5hPa Calm     93% 0.00in /  0mm 0 W/m2
22:24 69 °F /  20.6 °C 66.8 °F /  19.3 °C 30.14in /  1020.5hPa Calm     92.7% 0.00in /  0mm 0 W/m2
22:29 68.9 °F /  20.5 °C 66.5 °F /  19.2 °C 30.14in /  1020.5hPa Calm     92% 0.00in /  0mm 0 W/m2
22:34 68.9 °F /  20.5 °C 66.5 °F /  19.2 °C 30.13in /  1020.2hPa Calm     92% 0.00in /  0mm 0 W/m2
22:39 68.9 °F /  20.5 °C 66.4 °F /  19.1 °C 30.13in /  1020.2hPa Calm     92% 0.00in /  0mm 0 W/m2
22:44 68.8 °F /  20.4 °C 66.4 °F /  19.1 °C 30.13in /  1020.2hPa Calm     92% 0.00in /  0mm 0 W/m2
22:49 68.8 °F /  20.4 °C 66.4 °F /  19.1 °C 30.13in /  1020.2hPa Calm     92% 0.00in /  0mm 0 W/m2
22:54 68.7 °F /  20.4 °C 66.3 °F /  19.1 °C 30.13in /  1020.2hPa NNE 0.3mph /  0.5km/h 4mph /  6.4km/h 92% 0.00in /  0mm 0 W/m2
22:59 68.7 °F /  20.4 °C 66.3 °F /  19.1 °C 30.13in /  1020.2hPa Calm   4mph /  6.4km/h 92% 0.00in /  0mm 0 W/m2
23:04 68.7 °F /  20.4 °C 66.2 °F /  19 °C 30.12in /  1019.9hPa Calm   4mph /  6.4km/h 92% 0.00in /  0mm 0 W/m2
23:09 68.6 °F /  20.3 °C 66.2 °F /  19 °C 30.12in /  1019.9hPa NNE 0.1mph /  0.2km/h 4mph /  6.4km/h 92% 0.00in /  0mm 0 W/m2
23:14 68.6 °F /  20.3 °C 66.2 °F /  19 °C 30.12in /  1019.9hPa Calm   4mph /  6.4km/h 92% 0.00in /  0mm 0 W/m2
23:19 68.6 °F /  20.3 °C 66.2 °F /  19 °C 30.12in /  1019.9hPa Calm   4mph /  6.4km/h 92% 0.00in /  0mm 0 W/m2
23:24 68.5 °F /  20.3 °C 66.1 °F /  18.9 °C 30.11in /  1019.5hPa Calm   4mph /  6.4km/h 92% 0.00in /  0mm 0 W/m2
23:29 68.5 °F /  20.3 °C 66.1 °F /  18.9 °C 30.11in /  1019.5hPa NNE 0.3mph /  0.5km/h 4mph /  6.4km/h 92% 0.00in /  0mm 0 W/m2
23:34 68.5 °F /  20.3 °C 66 °F /  18.9 °C 30.11in /  1019.5hPa NE 1.2mph /  1.9km/h 6mph /  9.7km/h 92% 0.00in /  0mm 0 W/m2
23:39 68.4 °F /  20.2 °C 66 °F /  18.9 °C 30.11in /  1019.5hPa NE 0.3mph /  0.5km/h 6mph /  9.7km/h 92% 0.00in /  0mm 0 W/m2
23:44 68.3 °F /  20.2 °C 65.9 °F /  18.8 °C 30.11in /  1019.5hPa Calm   6mph /  9.7km/h 92% 0.00in /  0mm 0 W/m2
23:49 68.3 °F /  20.2 °C 65.8 °F /  18.8 °C 30.11in /  1019.5hPa Calm   6mph /  9.7km/h 92% 0.00in /  0mm 0 W/m2
23:54 68.2 °F /  20.1 °C 65.8 °F /  18.8 °C 30.11in /  1019.5hPa Calm   6mph /  9.7km/h 92% 0.00in /  0mm 0 W/m2
23:59 68.1 °F /  20.1 °C 65.7 °F /  18.7 °C 30.11in /  1019.5hPa Calm   6mph /  9.7km/h 92% 0.00in /  0mm 0 W/m2
Hartford County Weather
Compliments of Weather Underground - 4 mb